• Join FlightAware (Why Join?)
  • Login
  • US Flag 
04:03PM EDT


 

Airport Tracker/Info


-or-


 

Live Flight TrackerFlight Track Log ✈ ASQ5192 ✈ 28-Apr-2012 ✈ KIAH - KMEM

Flight Track Log - Related Links

Times and Time Zones

All times are in EDT time to prevent confusion due to time zone crossing. See the ASQ5192 flight status page for this flight to view local times or setup timezone preferences in your user account.

Time Position Orientation Groundspeed Altitude Reporting Facility
EDT Latitude Longitude Course Direction KTS MPH feet Rate Location/Type
03:16PM 29.9603 -95.3458 199° South 156 180 1,000  Level Houston Center
03:17PM 29.9392 -95.3544 311° West 194 223 1,900 1,920 Climbing Houston Center
03:18PM 29.9814 -95.4111 17° North 294 338 4,000 1,020 Climbing Houston Center
03:19PM 30.0594 -95.3828 22° Northeast 281 323 4,000  Level Houston Center
03:20PM 30.1417 -95.3450 33° Northeast 289 333 4,000 420 Level Houston Center
03:21PM 30.2122 -95.2922 52° Northeast 296 341 5,100 1,680 Climbing Houston Center
03:22PM 30.2622 -95.2172 52° Northeast 287 330 7,800 2,340 Climbing Houston Center
03:23PM 30.3142 -95.1397 52° Northeast 288 331 9,800 1,800 Climbing Houston Center
03:24PM 30.3664 -95.0619 44° Northeast 298 343 11,500 1,320 Climbing Houston Center
03:25PM 30.4350 -94.9847 34° Northeast 317 365 12,500 1,260 Climbing Houston Center
03:26PM 30.5222 -94.9153 34° Northeast 346 398 14,100 1,500 Climbing Houston Center
03:27PM 30.6072 -94.8481 34° Northeast 362 417 15,500 1,320 Climbing Houston Center
03:28PM 30.6967 -94.7786 33° Northeast 372 428 16,800 1,140 Climbing Houston Center
03:31PM 30.9211 -94.6069 34° Northeast 383 441 19,500 1,020 Climbing Fort Worth Center
03:32PM 31.0156 -94.5339 33° Northeast 395 455 20,400 900 Climbing Fort Worth Center
03:33PM 31.1058 -94.4656 34° Northeast 411 473 21,300 900 Climbing Fort Worth Center
03:34PM 31.2022 -94.3897 34° Northeast 411 473 22,200 840 Climbing Fort Worth Center
03:35PM 31.3025 -94.3111 34° Northeast 416 479 23,000 840 Climbing Fort Worth Center
03:36PM 31.4008 -94.2325 33° Northeast 421 484 23,900 900 Climbing Fort Worth Center
03:37PM 31.4992 -94.1583 34° Northeast 421 484 24,800 840 Climbing Fort Worth Center
03:38PM 31.5994 -94.0792 33° Northeast 421 484 25,600 660 Climbing Fort Worth Center
03:39PM 31.7119 -93.9947 34° Northeast 426 490 26,200 540 Climbing Fort Worth Center
03:40PM 31.8161 -93.9125 34° Northeast 432 497 26,700 420 Climbing Fort Worth Center
03:41PM 31.9039 -93.8431 35° Northeast 432 497 27,100 480 Climbing Fort Worth Center
03:42PM 32.0078 -93.7558 34° Northeast 437 503 27,700 480 Climbing Fort Worth Center
03:43PM 32.1100 -93.6756 36° Northeast 437 503 28,100 420 Climbing Fort Worth Center
03:44PM 32.2158 -93.5853 34° Northeast 445 512 28,600 480 Climbing Fort Worth Center
03:45PM 32.3197 -93.5022 34° Northeast 445 512 29,100 540 Climbing Fort Worth Center
03:46PM 32.4236 -93.4192 35° Northeast 450 518 29,700 480 Climbing Fort Worth Center
03:47PM 32.5292 -93.3331 34° Northeast 455 524 30,100 480 Climbing Fort Worth Center
03:48PM 32.6331 -93.2494 34° Northeast 455 524 30,700 420 Climbing Fort Worth Center
03:49PM 32.7367 -93.1658 34° Northeast 450 518 31,000 120 Climbing Fort Worth Center
03:50PM 32.8444 -93.0789 35° Northeast 450 518 31,000  Level Fort Worth Center
03:51PM 32.9497 -92.9922 33° Northeast 450 518 31,000  Level Fort Worth Center
03:52PM 33.0575 -92.9075 37° Northeast 450 518 31,000  Level Fort Worth Center
03:54PM 33.2803 -92.7081 55° Northeast 465 535 31,000  Level Memphis Center
03:55PM 33.3558 -92.5781 55° Northeast 456 525 31,000  Level Memphis Center
03:56PM 33.4139 -92.4775 56° Northeast 456 525 31,000  Level Memphis Center
03:57PM 33.5019 -92.3228 33° Northeast 459 528 31,000  Level Memphis Center
03:58PM 33.6075 -92.2403 25° Northeast 454 522 31,000  Level Memphis Center
03:59PM 33.7256 -92.1756 26° Northeast 446 513 31,000  Level Memphis Center
04:00PM 33.8392 -92.1078 26° Northeast 446 513 31,000 -300 Level Memphis Center
04:01PM 33.9569 -92.0400 27° Northeast 451 519 30,500 -780 Descending Memphis Center
04:02PM 34.0747 -91.9669 30° Northeast 458 527 29,500 -1,080 Descending Memphis Center
04:03PM 34.1883 -91.8889 33° Northeast 469 540 28,400 -1,080 Descending Memphis Center
04:04PM 34.2917 -91.8078 67° East 461 531 27,400 -900 Descending Memphis Center
04:05PM 34.3347 -91.6828 72° East 428 493 26,600 -1,080 Descending Memphis Center
04:06PM 34.3739 -91.5322 73° East 442 509 25,300 -1,800 Descending Memphis Center
04:07PM 34.4106 -91.3867 72° East 450 518 23,100 -2,160 Descending Memphis Center
04:08PM 34.4472 -91.2486 71° East 439 505 21,000 -2,160 Descending Memphis Center
04:09PM 34.4856 -91.1156 73° East 422 486 18,800 -2,100 Descending Memphis Center
04:10PM 34.5197 -90.9772 72° East 422 486 16,800 -1,980 Descending Memphis Center
04:11PM 34.5558 -90.8439 72° East 422 486 14,900 -1,920 Descending Memphis Center
04:12PM 34.5939 -90.7028 67° East 415 478 13,000 -1,500 Descending Memphis Center
04:13PM 34.6358 -90.5817 52° Northeast 402 463 12,000 -1,080 Descending Memphis Center
04:14PM 34.7028 -90.4758 52° Northeast 388 447 10,900 -1,020 Descending Memphis Center
04:15PM 34.7689 -90.3722 52° Northeast 378 435 10,000 -540 Descending FAA TRACON SMA TRACON (SMA)
04:16PM 34.8072 -90.3128 52° Northeast 365 420 10,000 -600 Level FAA TRACON SMA TRACON (SMA)
04:16PM 34.8447 -90.2533 52° Northeast 328 377 9,200 -1,380 Descending FAA TRACON SMA TRACON (SMA)
04:17PM 34.8822 -90.1944 52° Northeast 319 367 8,200 -900 Descending FAA TRACON SMA TRACON (SMA)
04:18PM 34.9136 -90.1447 32° Northeast 307 353 8,000 -180 Descending FAA TRACON SMA TRACON (SMA)
04:18PM 34.9550 -90.1131 North 265 305 8,000 -360 Level FAA TRACON SMA TRACON (SMA)
04:19PM 35.0275 -90.1108 North 259 298 7,400 -960 Descending FAA TRACON SMA TRACON (SMA)
04:20PM 35.0772 -90.1097 North 255 293 6,400 -1,380 Descending FAA TRACON SMA TRACON (SMA)
04:21PM 35.1189 -90.1083 359° North 244 281 5,600 -1,320 Descending FAA TRACON SMA TRACON (SMA)
04:21PM 35.1653 -90.1097 26° Northeast 240 276 4,700 -1,200 Descending FAA TRACON SMA TRACON (SMA)
04:22PM 35.2036 -90.0869 83° East 235 270 4,000 -1,140 Descending FAA TRACON SMA TRACON (SMA)
04:23PM 35.2078 -90.0439 127° Southeast 206 237 3,200 -1,080 Descending FAA TRACON SMA TRACON (SMA)
04:23PM 35.1878 -90.0117 147° Southeast 181 208 2,600 -780 Descending FAA TRACON SMA TRACON (SMA)
04:24PM 35.1619 -89.9908 180° South 181 208 2,200 -540 Descending FAA TRACON SMA TRACON (SMA)
04:25PM 35.1292 -89.9906 177° South 168 193 1,900 -720 Descending FAA TRACON SMA TRACON (SMA)
04:25PM 35.0997 -89.9886 179° South 149 171 1,300 -780 Descending FAA TRACON SMA TRACON (SMA)
04:26PM 35.0775 -89.9881 179° South 128 147 900 -600 Descending FAA TRACON SMA TRACON (SMA)
04:27PM 35.0547 -89.9875 360° North 136 157 500 -300 Descending FAA TRACON SMA TRACON (SMA)
04:27PM 35.0547 -89.9875 141° Southeast 136 157 500  Level FAA TRACON SMA TRACON (SMA)
04:35PM 35.0333 -89.9667 318° Northwest  Level FlightAware Approximate
04:36PM 35.1104 -90.0516 318° Northwest  Level Estimated